createdAt,value
2022-09-15T00:00:02.709Z,0.00
2022-09-15T00:01:02.674Z,0.00
2022-09-15T00:02:02.653Z,0.00
2022-09-15T00:03:02.382Z,0.00
2022-09-15T00:04:02.725Z,0.00
2022-09-15T00:05:02.218Z,0.00
2022-09-15T00:06:02.757Z,0.00
2022-09-15T00:07:02.333Z,0.00
2022-09-15T00:08:02.280Z,0.00
2022-09-15T00:09:02.876Z,0.00
2022-09-15T00:10:02.608Z,0.00
2022-09-15T00:11:02.496Z,0.00
2022-09-15T00:12:02.357Z,0.00
2022-09-15T00:13:02.827Z,0.00
2022-09-15T00:14:02.585Z,0.00
2022-09-15T00:15:02.808Z,0.00
2022-09-15T00:16:02.465Z,0.00
2022-09-15T00:17:02.027Z,0.00
2022-09-15T00:18:02.021Z,0.00
2022-09-15T00:19:01.949Z,0.00
2022-09-15T00:20:01.994Z,0.00
2022-09-15T00:21:02.190Z,0.00
2022-09-15T00:22:01.938Z,0.00
2022-09-15T00:23:01.743Z,0.00
2022-09-15T00:24:01.958Z,0.00
2022-09-15T00:25:01.584Z,0.00
2022-09-15T00:26:02.077Z,0.00
2022-09-15T00:27:02.098Z,0.00
2022-09-15T00:28:01.999Z,0.00
2022-09-15T00:29:02.000Z,0.00
2022-09-15T00:30:01.867Z,0.00
2022-09-15T00:31:01.951Z,0.00
2022-09-15T00:32:02.976Z,0.00
2022-09-15T00:33:02.518Z,0.00
2022-09-15T00:34:02.613Z,0.00
2022-09-15T00:35:02.585Z,0.00
2022-09-15T00:36:02.772Z,0.00
2022-09-15T00:37:02.669Z,0.00
2022-09-15T00:38:02.958Z,0.00
2022-09-15T00:39:02.585Z,0.00
2022-09-15T00:40:02.783Z,0.00
2022-09-15T00:41:03.071Z,0.00
2022-09-15T00:42:02.452Z,0.00
2022-09-15T00:43:02.055Z,0.00
2022-09-15T00:44:02.046Z,0.00
2022-09-15T00:45:02.338Z,0.00
2022-09-15T00:46:02.062Z,0.00
2022-09-15T00:47:18.696Z,0.00
2022-09-15T00:48:03.011Z,0.00
2022-09-15T00:49:02.598Z,0.00
2022-09-15T00:50:02.774Z,0.00
2022-09-15T00:51:02.631Z,0.00
2022-09-15T00:52:02.020Z,0.00
2022-09-15T00:53:02.047Z,0.00
2022-09-15T00:54:02.468Z,0.00
2022-09-15T00:55:02.396Z,0.00
2022-09-15T00:56:02.192Z,0.00
2022-09-15T00:57:02.780Z,0.00
2022-09-15T00:58:02.487Z,0.00
2022-09-15T00:59:02.908Z,0.00
2022-09-15T01:00:02.916Z,0.00
2022-09-15T01:01:02.981Z,0.00
2022-09-15T01:02:02.639Z,0.00
2022-09-15T01:03:02.046Z,0.00
2022-09-15T01:04:02.212Z,0.00
2022-09-15T01:05:02.118Z,0.00
2022-09-15T01:06:02.662Z,0.00
2022-09-15T01:07:02.827Z,0.00
2022-09-15T01:08:02.610Z,0.00
2022-09-15T01:09:02.899Z,0.00
2022-09-15T01:10:03.239Z,0.00
2022-09-15T01:11:03.014Z,0.00
2022-09-15T01:12:02.521Z,0.00
2022-09-15T01:13:02.906Z,0.00
2022-09-15T01:14:02.395Z,0.00
2022-09-15T01:15:02.394Z,0.00
2022-09-15T01:16:02.746Z,0.00
2022-09-15T01:17:02.834Z,0.00
2022-09-15T01:18:02.699Z,0.00
2022-09-15T01:19:02.844Z,0.00
2022-09-15T01:20:02.980Z,0.00
2022-09-15T01:21:02.560Z,0.00
2022-09-15T01:22:02.782Z,0.00
2022-09-15T01:23:02.680Z,0.00
2022-09-15T01:24:02.928Z,0.00
2022-09-15T01:25:02.936Z,0.00
2022-09-15T01:26:03.222Z,0.00
2022-09-15T01:27:13.855Z,0.00
2022-09-15T01:28:02.886Z,0.00
2022-09-15T01:29:02.420Z,0.00
2022-09-15T01:30:03.009Z,0.00
2022-09-15T01:31:02.743Z,0.00
2022-09-15T01:32:02.993Z,0.00
2022-09-15T01:33:02.770Z,0.00
2022-09-15T01:34:03.092Z,0.00
2022-09-15T01:35:03.254Z,0.00
2022-09-15T01:36:02.971Z,0.00
2022-09-15T01:37:02.360Z,0.00
2022-09-15T01:38:02.985Z,0.00
2022-09-15T01:39:02.630Z,0.00
2022-09-15T01:40:02.468Z,0.00
2022-09-15T01:41:02.621Z,0.00
2022-09-15T01:42:02.168Z,0.00
2022-09-15T01:43:02.182Z,0.00
2022-09-15T01:44:02.246Z,0.00
2022-09-15T01:45:02.311Z,0.00
2022-09-15T01:46:02.597Z,0.00
2022-09-15T01:47:02.764Z,0.00
2022-09-15T01:48:02.443Z,0.00
2022-09-15T01:49:02.413Z,0.00
2022-09-15T01:50:02.639Z,0.00
2022-09-15T01:51:02.632Z,0.00
2022-09-15T01:52:02.964Z,0.00
2022-09-15T01:53:03.174Z,0.00
2022-09-15T01:54:02.746Z,0.00
2022-09-15T01:55:02.970Z,0.00
2022-09-15T01:56:03.037Z,0.00
2022-09-15T01:57:02.187Z,0.00
2022-09-15T01:58:02.288Z,0.00
2022-09-15T01:59:02.777Z,0.00
2022-09-15T02:00:02.311Z,0.00
2022-09-15T02:01:02.238Z,0.00
2022-09-15T02:02:02.804Z,0.00
2022-09-15T02:03:02.645Z,0.00
2022-09-15T02:04:03.004Z,0.00
2022-09-15T02:05:03.041Z,0.00
2022-09-15T02:06:02.960Z,0.00
2022-09-15T02:07:03.093Z,0.00
2022-09-15T02:08:03.373Z,0.00
2022-09-15T02:09:02.915Z,0.00
2022-09-15T02:10:02.923Z,0.00
2022-09-15T02:11:03.005Z,0.00
2022-09-15T02:12:02.965Z,0.00
2022-09-15T02:13:02.592Z,0.00
2022-09-15T02:14:03.095Z,0.00
2022-09-15T02:15:03.213Z,0.00
2022-09-15T02:16:03.060Z,0.00
2022-09-15T02:17:02.495Z,0.00
2022-09-15T02:18:02.378Z,0.00
2022-09-15T02:19:02.597Z,0.00
2022-09-15T02:20:02.613Z,0.00
2022-09-15T02:21:02.293Z,0.00
2022-09-15T02:22:02.973Z,0.00
2022-09-15T02:23:03.063Z,0.00
2022-09-15T02:24:03.100Z,0.00
2022-09-15T02:25:03.043Z,0.00
2022-09-15T02:26:02.879Z,0.00
2022-09-15T02:27:02.426Z,0.00
2022-09-15T02:28:02.586Z,0.00
2022-09-15T02:29:02.760Z,0.00
2022-09-15T02:30:02.880Z,0.00
2022-09-15T02:31:02.900Z,0.00
2022-09-15T02:32:07.015Z,0.00
2022-09-15T02:33:02.765Z,0.00
2022-09-15T02:34:03.125Z,0.00
2022-09-15T02:35:02.735Z,0.00
2022-09-15T02:36:02.741Z,0.00
2022-09-15T02:37:03.376Z,0.00
2022-09-15T02:38:03.746Z,0.00
2022-09-15T02:39:03.481Z,0.00
2022-09-15T02:40:03.551Z,0.00
2022-09-15T02:41:03.315Z,0.00
2022-09-15T02:42:03.172Z,0.00
2022-09-15T02:43:03.103Z,0.00
2022-09-15T02:44:02.644Z,0.00
2022-09-15T02:45:03.172Z,0.00
2022-09-15T02:46:02.828Z,0.00
2022-09-15T02:47:02.271Z,0.00
2022-09-15T02:48:02.848Z,0.00
2022-09-15T02:49:02.594Z,0.00
2022-09-15T02:50:02.729Z,0.00
2022-09-15T02:51:02.839Z,0.00
2022-09-15T02:52:02.979Z,0.00
2022-09-15T02:53:02.606Z,0.00
2022-09-15T02:54:02.532Z,0.00
2022-09-15T02:55:02.994Z,0.00
2022-09-15T02:56:02.771Z,0.00
2022-09-15T02:57:03.367Z,0.00
2022-09-15T02:58:03.243Z,0.00
2022-09-15T02:59:03.232Z,0.00
2022-09-15T03:00:03.429Z,0.00
2022-09-15T03:01:03.329Z,0.00
2022-09-15T03:02:02.782Z,0.00
2022-09-15T03:03:02.985Z,0.00
2022-09-15T03:04:02.803Z,0.00
2022-09-15T03:05:02.747Z,0.00
2022-09-15T03:06:03.289Z,0.00
2022-09-15T03:07:02.390Z,0.00
2022-09-15T03:08:02.443Z,0.00
2022-09-15T03:09:02.839Z,0.00
2022-09-15T03:10:02.871Z,0.00
2022-09-15T03:11:02.430Z,0.00
2022-09-15T03:12:03.136Z,0.00
2022-09-15T03:13:02.864Z,0.00
2022-09-15T03:14:03.237Z,0.00
2022-09-15T03:15:03.301Z,0.00
2022-09-15T03:16:03.234Z,0.00
2022-09-15T03:17:03.168Z,0.00
2022-09-15T03:18:03.325Z,0.00
2022-09-15T03:19:03.144Z,0.00
2022-09-15T03:20:03.245Z,0.00
2022-09-15T03:21:02.929Z,0.00
2022-09-15T03:22:02.902Z,0.00
2022-09-15T03:23:03.455Z,0.00
2022-09-15T03:24:02.989Z,0.00
2022-09-15T03:25:03.025Z,0.00
2022-09-15T03:26:03.053Z,0.00
2022-09-15T03:27:02.410Z,0.00
2022-09-15T03:28:02.943Z,0.00
2022-09-15T03:29:02.714Z,0.00
2022-09-15T03:30:02.796Z,0.00
2022-09-15T03:31:03.030Z,0.00
2022-09-15T03:32:03.203Z,0.00
2022-09-15T03:33:02.902Z,0.00
2022-09-15T03:34:03.412Z,0.00
2022-09-15T03:35:03.164Z,0.00
2022-09-15T03:36:03.081Z,0.00
2022-09-15T03:37:03.106Z,0.00
2022-09-15T03:38:03.360Z,0.00
2022-09-15T03:39:03.680Z,0.00
2022-09-15T03:40:03.404Z,0.00
2022-09-15T03:41:03.667Z,0.00
2022-09-15T03:42:02.560Z,0.00
2022-09-15T03:43:02.626Z,0.00
2022-09-15T03:44:02.483Z,0.00
2022-09-15T03:45:02.422Z,0.00
2022-09-15T03:46:02.964Z,0.00
2022-09-15T03:47:03.494Z,0.00
2022-09-15T03:48:03.507Z,0.00
2022-09-15T03:49:02.995Z,0.00
2022-09-15T03:50:03.089Z,0.00
2022-09-15T03:51:02.962Z,0.00
2022-09-15T03:52:03.808Z,0.00
2022-09-15T03:53:03.271Z,0.00
2022-09-15T03:54:03.681Z,0.00
2022-09-15T03:55:03.733Z,0.00
2022-09-15T03:56:03.683Z,0.00
2022-09-15T03:57:02.950Z,0.00
2022-09-15T03:58:03.440Z,0.00
2022-09-15T03:59:03.379Z,0.00
2022-09-15T04:00:03.199Z,0.00
2022-09-15T04:01:03.407Z,0.00
2022-09-15T04:02:02.759Z,0.00
2022-09-15T04:03:03.121Z,0.00
2022-09-15T04:04:03.191Z,0.00
2022-09-15T04:05:02.886Z,0.00
2022-09-15T04:06:03.242Z,0.00
2022-09-15T04:07:02.007Z,0.00
2022-09-15T04:08:02.023Z,0.00
2022-09-15T04:09:02.242Z,0.00
2022-09-15T04:10:02.197Z,0.00
2022-09-15T04:11:02.508Z,0.00
2022-09-15T04:12:02.523Z,0.00
2022-09-15T04:13:02.094Z,0.00
2022-09-15T04:14:02.298Z,0.00
2022-09-15T04:15:02.527Z,0.00
2022-09-15T04:16:02.182Z,0.00
2022-09-15T04:17:02.290Z,0.00
2022-09-15T04:18:02.904Z,0.00
2022-09-15T04:19:02.850Z,0.00
2022-09-15T04:20:02.475Z,0.00
2022-09-15T04:21:02.757Z,0.00
2022-09-15T04:22:02.515Z,0.00
2022-09-15T04:23:02.464Z,0.00
2022-09-15T04:24:02.969Z,0.00
2022-09-15T04:25:02.688Z,0.00
2022-09-15T04:26:02.538Z,0.00
2022-09-15T04:27:02.537Z,0.00
2022-09-15T04:28:02.334Z,0.00
2022-09-15T04:29:04.654Z,0.00
2022-09-15T04:30:02.074Z,0.00
2022-09-15T04:31:02.622Z,0.00
2022-09-15T04:32:02.870Z,0.00
2022-09-15T04:33:02.593Z,0.00
2022-09-15T04:34:02.873Z,0.00
2022-09-15T04:35:02.941Z,0.00
2022-09-15T04:36:02.702Z,4.00
2022-09-15T04:37:02.612Z,4.00
2022-09-15T04:38:02.870Z,4.00
2022-09-15T04:39:03.228Z,0.00
2022-09-15T04:40:02.673Z,4.00
2022-09-15T04:41:02.891Z,4.00
2022-09-15T04:42:03.387Z,4.00
2022-09-15T04:43:03.029Z,4.00
2022-09-15T04:44:03.197Z,4.00
2022-09-15T04:45:02.936Z,8.00
2022-09-15T04:46:02.852Z,8.00
2022-09-15T04:47:02.986Z,12.00
2022-09-15T04:48:03.009Z,12.00
2022-09-15T04:49:02.696Z,16.00
2022-09-15T04:50:02.621Z,16.00
2022-09-15T04:51:02.583Z,20.00
2022-09-15T04:52:03.975Z,20.00
2022-09-15T04:53:02.528Z,16.00
2022-09-15T04:54:02.589Z,16.00
2022-09-15T04:55:02.361Z,16.00
2022-09-15T04:56:02.697Z,20.00
2022-09-15T04:57:02.787Z,32.00
2022-09-15T04:58:02.706Z,44.00
2022-09-15T04:59:04.137Z,48.00
2022-09-15T05:00:02.705Z,56.00
2022-09-15T05:01:03.108Z,60.00
2022-09-15T05:02:02.430Z,52.00
2022-09-15T05:03:02.056Z,68.00
2022-09-15T05:04:02.547Z,84.00
2022-09-15T05:05:02.228Z,84.00
2022-09-15T05:06:02.239Z,92.00
2022-09-15T05:07:03.003Z,108.00
2022-09-15T05:08:03.424Z,120.00
2022-09-15T05:09:07.629Z,140.00
2022-09-15T05:10:03.308Z,148.00
2022-09-15T05:11:02.897Z,144.00
2022-09-15T05:12:02.373Z,112.00
2022-09-15T05:13:02.223Z,108.00
2022-09-15T05:14:02.349Z,144.00
2022-09-15T05:15:02.353Z,168.00
2022-09-15T05:16:02.482Z,208.00
2022-09-15T05:17:02.863Z,256.00
2022-09-15T05:18:02.400Z,308.00
2022-09-15T05:19:02.652Z,348.00
2022-09-15T05:20:02.516Z,404.00
2022-09-15T05:21:02.842Z,460.00
2022-09-15T05:22:03.242Z,512.00
2022-09-15T05:23:03.140Z,564.00
2022-09-15T05:24:03.012Z,592.00
2022-09-15T05:25:02.726Z,628.00
2022-09-15T05:26:02.993Z,672.00
2022-09-15T05:27:03.130Z,724.00
2022-09-15T05:28:03.331Z,784.00
2022-09-15T05:29:02.822Z,820.00
2022-09-15T05:30:31.869Z,856.00
2022-09-15T05:31:02.866Z,892.00
2022-09-15T05:32:02.833Z,920.00
2022-09-15T05:33:02.509Z,932.00
2022-09-15T05:34:02.429Z,960.00
2022-09-15T05:35:02.696Z,992.00
2022-09-15T05:36:02.352Z,1048.00
2022-09-15T05:37:03.205Z,1092.00
2022-09-15T05:38:02.911Z,1152.00
2022-09-15T05:39:03.349Z,1196.00
2022-09-15T05:40:08.073Z,1216.00
2022-09-15T05:41:03.076Z,1236.00
2022-09-15T05:42:02.913Z,1280.00
2022-09-15T05:43:02.646Z,1336.00
2022-09-15T05:44:02.702Z,1328.00
2022-09-15T05:45:02.666Z,1256.00
2022-09-15T05:46:02.774Z,1276.00
2022-09-15T05:47:02.845Z,1348.00
2022-09-15T05:48:02.922Z,1376.00
2022-09-15T05:49:03.147Z,1340.00
2022-09-15T05:50:03.325Z,1316.00
2022-09-15T05:51:03.085Z,1364.00
2022-09-15T05:52:03.109Z,1420.00
2022-09-15T05:53:03.387Z,1348.00
2022-09-15T05:54:02.981Z,1312.00
2022-09-15T05:55:03.235Z,1296.00
2022-09-15T05:56:03.075Z,1380.00
2022-09-15T05:57:03.253Z,1444.00
2022-09-15T05:58:03.093Z,1444.00
2022-09-15T05:59:03.137Z,1396.00
2022-09-15T06:00:02.926Z,1388.00
2022-09-15T06:01:03.092Z,1412.00
2022-09-15T06:02:02.028Z,1472.00
2022-09-15T06:03:02.537Z,1556.00
2022-09-15T06:04:02.217Z,1668.00
2022-09-15T06:05:02.070Z,1840.00
2022-09-15T06:06:02.193Z,1976.00
2022-09-15T06:07:02.985Z,2008.00
2022-09-15T06:08:02.667Z,2076.00
2022-09-15T06:09:03.063Z,2164.00
2022-09-15T06:10:02.994Z,2260.00
2022-09-15T06:11:02.646Z,2228.00
2022-09-15T06:12:02.727Z,2268.00
2022-09-15T06:13:02.830Z,2356.00
2022-09-15T06:14:02.552Z,2372.00
2022-09-15T06:15:02.208Z,2140.00
2022-09-15T06:16:02.451Z,1992.00
2022-09-15T06:17:02.694Z,2000.00
2022-09-15T06:18:02.872Z,2128.00
2022-09-15T06:19:03.200Z,2300.00
2022-09-15T06:20:03.280Z,2404.00
2022-09-15T06:21:03.276Z,2476.00
2022-09-15T06:22:02.619Z,2772.00
2022-09-15T06:23:02.410Z,3096.00
2022-09-15T06:24:02.465Z,3144.00
2022-09-15T06:25:02.043Z,3244.00
2022-09-15T06:26:02.073Z,3316.00
2022-09-15T06:27:03.132Z,3088.00
2022-09-15T06:28:02.818Z,2960.00
2022-09-15T06:29:02.634Z,3104.00
2022-09-15T06:30:03.126Z,3324.00
2022-09-15T06:31:02.692Z,3584.00
2022-09-15T06:32:03.583Z,3608.00
2022-09-15T06:33:02.780Z,3632.00
2022-09-15T06:34:02.817Z,3800.00
2022-09-15T06:35:02.987Z,3864.00
2022-09-15T06:36:03.009Z,3716.00
2022-09-15T06:37:02.545Z,3580.00
2022-09-15T06:38:02.835Z,3544.00
2022-09-15T06:39:02.851Z,3584.00
2022-09-15T06:40:03.004Z,3716.00
2022-09-15T06:41:02.942Z,3868.00
2022-09-15T06:42:04.858Z,3964.00
2022-09-15T06:43:02.828Z,3852.00
2022-09-15T06:44:02.742Z,3848.00
2022-09-15T06:45:02.705Z,3868.00
2022-09-15T06:46:03.077Z,3964.00
2022-09-15T06:47:02.323Z,4068.00
2022-09-15T06:48:23.540Z,4212.00
2022-09-15T06:49:02.358Z,4252.00
2022-09-15T06:50:02.663Z,4184.00
2022-09-15T06:51:02.352Z,3608.00
2022-09-15T06:52:02.385Z,2960.00
2022-09-15T06:53:02.954Z,2708.00
2022-09-15T06:54:02.939Z,2624.00
2022-09-15T06:55:02.374Z,2836.00
2022-09-15T06:56:02.734Z,3108.00
2022-09-15T06:57:02.743Z,3104.00
2022-09-15T06:58:03.141Z,2952.00
2022-09-15T06:59:03.208Z,2988.00
2022-09-15T07:00:02.853Z,2908.00
2022-09-15T07:01:02.745Z,3028.00
2022-09-15T07:02:05.092Z,3452.00
2022-09-15T07:03:02.193Z,3344.00
2022-09-15T07:04:02.145Z,2980.00
2022-09-15T07:05:02.230Z,2400.00
2022-09-15T07:06:02.021Z,2168.00
2022-09-15T07:07:02.224Z,2072.00
2022-09-15T07:08:02.453Z,2356.00
2022-09-15T07:09:02.658Z,2960.00
2022-09-15T07:10:02.361Z,3196.00
2022-09-15T07:11:02.600Z,2764.00
2022-09-15T07:12:01.926Z,2088.00
2022-09-15T07:13:02.157Z,2236.00
2022-09-15T07:14:02.163Z,2312.00
2022-09-15T07:15:02.837Z,1928.00
2022-09-15T07:16:01.953Z,1916.00
2022-09-15T07:17:02.090Z,1980.00
2022-09-15T07:18:02.139Z,2056.00
2022-09-15T07:19:02.071Z,2364.00
2022-09-15T07:20:02.113Z,1836.00
2022-09-15T07:21:02.508Z,1776.00
2022-09-15T07:22:02.769Z,2248.00
2022-09-15T07:23:02.751Z,2704.00
2022-09-15T07:24:07.060Z,2424.00
2022-09-15T07:25:02.969Z,1792.00
2022-09-15T07:26:02.745Z,1560.00
2022-09-15T07:27:02.476Z,1956.00
2022-09-15T07:28:02.420Z,2908.00
2022-09-15T07:29:02.524Z,3620.00
2022-09-15T07:30:02.312Z,3520.00
2022-09-15T07:31:02.659Z,3708.00
2022-09-15T07:32:02.837Z,4248.00
2022-09-15T07:33:02.799Z,4124.00
2022-09-15T07:34:02.720Z,4400.00
2022-09-15T07:35:02.831Z,4168.00
2022-09-15T07:36:02.340Z,3348.00
2022-09-15T07:37:02.217Z,3004.00
2022-09-15T07:38:02.573Z,3840.00
2022-09-15T07:39:02.565Z,5344.00
2022-09-15T07:40:02.711Z,5152.00
2022-09-15T07:41:02.461Z,4924.00
2022-09-15T07:42:02.505Z,6236.00
2022-09-15T07:43:02.812Z,6100.00
2022-09-15T07:44:02.578Z,6192.00
2022-09-15T07:45:02.476Z,6336.00
2022-09-15T07:46:02.549Z,6572.00
2022-09-15T07:47:02.771Z,5944.00
2022-09-15T07:48:02.689Z,6040.00
2022-09-15T07:49:02.748Z,5848.00
2022-09-15T07:50:02.949Z,6188.00
2022-09-15T07:51:02.581Z,6236.00
2022-09-15T07:52:02.791Z,6984.00
2022-09-15T07:53:02.637Z,7476.00
2022-09-15T07:54:02.724Z,6532.00
2022-09-15T07:55:03.180Z,5660.00
2022-09-15T07:56:03.016Z,5536.00
2022-09-15T07:57:02.958Z,6296.00
2022-09-15T07:58:02.909Z,7040.00
2022-09-15T07:59:03.099Z,6692.00
2022-09-15T08:00:03.130Z,7124.00
2022-09-15T08:01:03.205Z,8496.00
2022-09-15T08:02:02.172Z,9852.00
2022-09-15T08:03:02.182Z,9740.00
2022-09-15T08:04:02.480Z,9216.00
2022-09-15T08:05:02.606Z,9284.00
2022-09-15T08:06:01.994Z,9624.00
2022-09-15T08:07:02.506Z,9500.00
2022-09-15T08:08:02.786Z,9700.00
2022-09-15T08:09:02.957Z,10400.00
2022-09-15T08:10:02.555Z,10644.00
2022-09-15T08:11:02.999Z,10508.00
2022-09-15T08:12:02.861Z,10548.00
2022-09-15T08:13:02.830Z,10344.00
2022-09-15T08:14:03.112Z,9680.00
2022-09-15T08:15:03.216Z,8792.00
2022-09-15T08:16:03.279Z,8308.00
2022-09-15T08:17:02.611Z,7840.00
2022-09-15T08:18:02.609Z,8100.00
2022-09-15T08:19:02.550Z,8632.00
2022-09-15T08:20:02.563Z,8672.00
2022-09-15T08:21:02.683Z,8844.00
2022-09-15T08:22:02.792Z,8648.00
2022-09-15T08:23:02.796Z,8224.00
2022-09-15T08:24:02.458Z,7996.00
2022-09-15T08:25:02.694Z,8188.00
2022-09-15T08:26:02.709Z,8080.00
2022-09-15T08:27:02.376Z,8236.00
2022-09-15T08:28:02.392Z,8168.00
2022-09-15T08:29:01.971Z,8332.00
2022-09-15T08:30:02.447Z,8616.00
2022-09-15T08:31:02.327Z,8940.00
2022-09-15T08:32:03.031Z,9640.00
2022-09-15T08:33:02.837Z,10428.00
2022-09-15T08:34:03.166Z,11216.00
2022-09-15T08:35:03.005Z,11732.00
2022-09-15T08:36:03.041Z,10508.00
2022-09-15T08:37:03.143Z,9820.00
2022-09-15T08:38:02.830Z,9628.00
2022-09-15T08:39:03.378Z,8136.00
2022-09-15T08:40:03.054Z,6636.00
2022-09-15T08:41:03.055Z,6492.00
2022-09-15T08:42:02.868Z,7076.00
2022-09-15T08:43:02.819Z,7784.00
2022-09-15T08:44:02.608Z,7200.00
2022-09-15T08:45:02.430Z,7116.00
2022-09-15T08:46:02.597Z,8200.00
2022-09-15T08:47:02.544Z,8724.00
2022-09-15T08:48:02.407Z,9700.00
2022-09-15T08:49:03.163Z,9700.00
2022-09-15T08:50:02.474Z,10384.00
2022-09-15T08:51:02.271Z,11796.00
2022-09-15T08:52:03.136Z,12588.00
2022-09-15T08:53:02.997Z,13404.00
2022-09-15T08:54:02.821Z,13564.00
2022-09-15T08:55:03.034Z,13700.00
2022-09-15T08:56:05.383Z,13136.00
2022-09-15T08:57:03.311Z,13252.00
2022-09-15T08:58:03.293Z,13604.00
2022-09-15T08:59:03.335Z,13576.00
2022-09-15T09:00:02.881Z,11100.00
2022-09-15T09:01:02.927Z,10820.00
2022-09-15T09:02:02.793Z,11296.00
2022-09-15T09:03:02.423Z,10332.00
2022-09-15T09:04:02.829Z,9284.00
2022-09-15T09:05:02.199Z,8924.00
2022-09-15T09:06:02.805Z,9516.00
2022-09-15T09:07:02.853Z,9596.00
2022-09-15T09:08:02.762Z,10756.00
2022-09-15T09:09:02.613Z,13384.00
2022-09-15T09:10:02.708Z,15552.00
2022-09-15T09:11:02.429Z,15680.00
2022-09-15T09:12:03.214Z,17088.00
2022-09-15T09:13:03.314Z,13264.00
2022-09-15T09:14:03.306Z,12740.00
2022-09-15T09:15:03.267Z,11104.00
2022-09-15T09:16:03.326Z,11036.00
2022-09-15T09:17:02.726Z,10300.00
2022-09-15T09:18:02.668Z,9900.00
2022-09-15T09:19:02.723Z,10780.00
2022-09-15T09:20:02.551Z,12056.00
2022-09-15T09:21:02.514Z,12780.00
2022-09-15T09:22:02.805Z,12760.00
2022-09-15T09:23:02.542Z,12816.00
2022-09-15T09:24:02.561Z,12108.00
2022-09-15T09:25:11.691Z,11228.00
2022-09-15T09:26:02.533Z,9576.00
2022-09-15T09:27:03.003Z,8964.00
2022-09-15T09:28:02.878Z,9708.00
2022-09-15T09:29:02.987Z,11128.00
2022-09-15T09:30:02.494Z,13072.00
2022-09-15T09:31:02.759Z,14820.00
2022-09-15T09:32:03.045Z,16160.00
2022-09-15T09:33:02.800Z,17120.00
2022-09-15T09:34:02.616Z,17760.00
2022-09-15T09:35:02.995Z,18624.00
2022-09-15T09:36:02.949Z,15104.00
2022-09-15T09:37:01.846Z,14444.00
2022-09-15T09:38:02.328Z,14344.00
2022-09-15T09:39:02.071Z,13316.00
2022-09-15T09:40:02.010Z,13248.00
2022-09-15T09:41:02.874Z,13476.00
2022-09-15T09:42:01.951Z,14168.00
2022-09-15T09:43:02.392Z,13640.00
2022-09-15T09:44:02.039Z,12072.00
2022-09-15T09:45:01.983Z,11556.00
2022-09-15T09:46:02.594Z,11996.00
2022-09-15T09:47:02.259Z,13096.00
2022-09-15T09:48:02.589Z,14408.00
2022-09-15T09:49:02.554Z,16896.00
2022-09-15T09:50:02.686Z,19264.00
2022-09-15T09:51:02.751Z,20480.00
2022-09-15T09:52:02.790Z,20416.00
2022-09-15T09:53:02.911Z,20000.00
2022-09-15T09:54:02.918Z,20064.00
2022-09-15T09:55:02.976Z,22336.00
2022-09-15T09:56:03.027Z,24288.00
2022-09-15T09:57:03.054Z,26816.00
2022-09-15T09:58:02.149Z,22656.00
2022-09-15T09:59:02.095Z,20544.00
2022-09-15T10:00:02.583Z,18592.00
2022-09-15T10:01:02.763Z,17856.00
2022-09-15T10:02:02.687Z,16096.00
2022-09-15T10:03:03.445Z,13384.00
2022-09-15T10:04:02.968Z,12012.00
2022-09-15T10:05:03.124Z,11148.00
2022-09-15T10:06:02.922Z,11876.00
2022-09-15T10:07:03.413Z,12996.00
2022-09-15T10:08:03.093Z,16064.00
2022-09-15T10:09:03.037Z,18080.00
2022-09-15T10:10:02.937Z,18304.00
2022-09-15T10:11:02.947Z,17760.00
2022-09-15T10:12:03.007Z,15488.00
2022-09-15T10:13:02.971Z,13368.00
2022-09-15T10:14:02.939Z,12124.00
2022-09-15T10:15:03.034Z,12076.00
2022-09-15T10:16:03.179Z,12120.00
2022-09-15T10:17:02.893Z,12140.00
2022-09-15T10:18:03.718Z,11832.00
2022-09-15T10:19:03.742Z,10916.00
2022-09-15T10:20:03.786Z,10896.00
2022-09-15T10:21:03.591Z,12340.00
2022-09-15T10:22:03.854Z,13340.00
2022-09-15T10:23:02.926Z,13824.00
2022-09-15T10:24:02.842Z,14216.00
2022-09-15T10:25:02.866Z,14548.00
2022-09-15T10:26:02.644Z,15712.00
2022-09-15T10:27:02.560Z,15968.00
2022-09-15T10:28:03.049Z,16032.00
2022-09-15T10:29:03.109Z,15392.00
2022-09-15T10:30:02.922Z,13800.00
2022-09-15T10:31:03.371Z,12484.00
2022-09-15T10:32:03.456Z,12432.00
2022-09-15T10:33:03.275Z,13416.00
2022-09-15T10:34:03.001Z,14536.00
2022-09-15T10:35:03.336Z,14944.00
2022-09-15T10:36:03.426Z,15520.00
2022-09-15T10:37:03.615Z,16864.00
2022-09-15T10:38:03.482Z,18048.00
2022-09-15T10:39:03.520Z,18752.00
2022-09-15T10:40:03.630Z,17632.00
2022-09-15T10:41:03.656Z,17472.00
2022-09-15T10:42:03.685Z,15552.00
2022-09-15T10:43:03.302Z,14544.00
2022-09-15T10:44:03.291Z,16288.00
2022-09-15T10:45:03.449Z,15296.00
2022-09-15T10:46:03.534Z,15392.00
2022-09-15T10:47:03.513Z,15520.00
2022-09-15T10:48:03.692Z,15968.00
2022-09-15T10:49:03.806Z,17024.00
2022-09-15T10:50:03.800Z,16672.00
2022-09-15T10:51:03.459Z,15680.00
2022-09-15T10:52:03.565Z,15456.00
2022-09-15T10:53:03.347Z,15840.00
2022-09-15T10:54:03.351Z,15264.00
2022-09-15T10:55:03.384Z,15648.00
2022-09-15T10:56:03.660Z,16608.00
2022-09-15T10:57:03.710Z,17312.00
2022-09-15T10:58:03.614Z,17408.00
2022-09-15T10:59:03.395Z,16864.00
2022-09-15T11:00:03.362Z,15840.00
2022-09-15T11:01:03.881Z,16000.00
2022-09-15T11:02:03.426Z,15488.00
2022-09-15T11:03:03.428Z,15040.00
2022-09-15T11:04:02.847Z,14976.00
2022-09-15T11:05:03.177Z,15680.00
2022-09-15T11:06:03.120Z,15616.00
2022-09-15T11:07:02.866Z,16256.00
2022-09-15T11:08:02.287Z,16768.00
2022-09-15T11:09:02.959Z,17408.00
2022-09-15T11:10:02.498Z,17984.00
2022-09-15T11:11:02.442Z,17888.00
2022-09-15T11:12:02.811Z,16992.00
2022-09-15T11:13:03.567Z,16832.00
2022-09-15T11:14:03.622Z,16160.00
2022-09-15T11:15:03.417Z,14584.00
2022-09-15T11:16:03.675Z,13236.00
2022-09-15T11:17:03.683Z,11968.00
2022-09-15T11:18:03.259Z,11712.00
2022-09-15T11:19:02.695Z,11564.00
2022-09-15T11:20:02.700Z,11456.00
2022-09-15T11:21:02.772Z,12244.00
2022-09-15T11:22:02.686Z,12128.00
2022-09-15T11:23:03.321Z,10268.00
2022-09-15T11:24:03.065Z,8252.00
2022-09-15T11:25:03.382Z,6676.00
2022-09-15T11:26:02.976Z,5668.00
2022-09-15T11:27:03.375Z,5156.00
2022-09-15T11:28:03.145Z,5068.00
2022-09-15T11:29:02.776Z,5196.00
2022-09-15T11:30:02.855Z,5320.00
2022-09-15T11:31:03.252Z,5656.00
2022-09-15T11:33:03.255Z,6088.00
2022-09-15T11:34:03.762Z,6460.00
2022-09-15T11:35:03.729Z,7052.00
2022-09-15T11:36:03.700Z,7604.00
2022-09-15T11:37:03.350Z,7708.00
2022-09-15T11:38:03.050Z,7264.00
2022-09-15T11:39:02.795Z,7120.00
2022-09-15T11:40:02.906Z,7408.00
2022-09-15T11:41:02.708Z,7388.00
2022-09-15T11:42:02.764Z,7448.00
2022-09-15T11:43:03.450Z,7620.00
2022-09-15T11:44:03.220Z,7532.00
2022-09-15T11:45:02.894Z,7512.00
2022-09-15T11:46:03.380Z,7552.00
2022-09-15T11:47:03.461Z,7640.00
2022-09-15T11:48:03.270Z,7780.00
2022-09-15T11:49:03.879Z,8544.00
2022-09-15T11:50:03.668Z,9748.00
2022-09-15T11:51:03.410Z,10948.00
2022-09-15T11:52:03.346Z,12312.00
2022-09-15T11:53:02.787Z,13368.00
2022-09-15T11:54:02.626Z,14012.00
2022-09-15T11:55:02.548Z,14172.00
2022-09-15T11:56:02.533Z,14232.00
2022-09-15T11:57:02.439Z,14356.00
2022-09-15T11:58:03.507Z,14772.00
2022-09-15T11:59:03.038Z,15424.00
2022-09-15T12:00:02.890Z,15648.00
2022-09-15T12:01:02.983Z,16768.00
2022-09-15T12:02:02.795Z,27520.00
2022-09-15T12:03:02.198Z,16160.00
2022-09-15T12:04:02.139Z,15392.00
2022-09-15T12:05:02.075Z,13720.00
2022-09-15T12:06:02.052Z,13396.00
2022-09-15T12:07:02.168Z,14260.00
2022-09-15T12:08:02.754Z,15424.00
2022-09-15T12:09:02.499Z,15232.00
2022-09-15T12:10:02.432Z,14356.00
2022-09-15T12:11:02.346Z,13596.00
2022-09-15T12:12:02.726Z,13932.00
2022-09-15T12:13:02.657Z,13668.00
2022-09-15T12:14:02.757Z,12740.00
2022-09-15T12:15:03.067Z,11648.00
2022-09-15T12:16:03.038Z,10472.00
2022-09-15T12:17:02.846Z,9000.00
2022-09-15T12:18:06.622Z,8512.00
2022-09-15T12:19:02.100Z,8464.00
2022-09-15T12:20:01.772Z,9904.00
2022-09-15T12:21:01.759Z,11784.00
2022-09-15T12:22:02.414Z,12516.00
2022-09-15T12:23:02.548Z,12892.00
2022-09-15T12:24:02.448Z,12760.00
2022-09-15T12:25:02.421Z,12248.00
2022-09-15T12:26:02.394Z,11468.00
2022-09-15T12:27:02.285Z,10848.00
2022-09-15T12:28:02.250Z,10568.00
2022-09-15T12:29:02.804Z,9160.00